sensor_id;sensor_type;location;lat;lon;timestamp;temperature;humidity
41678;DHT22;27364;49.026;8.712;2023-06-22T00:01:47;21.20;99.90
41678;DHT22;27364;49.026;8.712;2023-06-22T00:04:12;21.20;99.90
41678;DHT22;27364;49.026;8.712;2023-06-22T00:06:38;21.20;99.90
41678;DHT22;27364;49.026;8.712;2023-06-22T00:09:03;21.20;99.90
41678;DHT22;27364;49.026;8.712;2023-06-22T00:11:29;21.10;99.90
41678;DHT22;27364;49.026;8.712;2023-06-22T00:13:56;21.10;99.90
41678;DHT22;27364;49.026;8.712;2023-06-22T00:16:22;21.10;99.90
41678;DHT22;27364;49.026;8.712;2023-06-22T00:18:47;21.00;99.90
41678;DHT22;27364;49.026;8.712;2023-06-22T00:21:14;21.00;99.90
41678;DHT22;27364;49.026;8.712;2023-06-22T00:23:39;21.00;99.90
41678;DHT22;27364;49.026;8.712;2023-06-22T00:26:06;20.90;99.90
41678;DHT22;27364;49.026;8.712;2023-06-22T00:28:32;20.90;99.90
41678;DHT22;27364;49.026;8.712;2023-06-22T00:30:58;20.90;99.90
41678;DHT22;27364;49.026;8.712;2023-06-22T00:33:23;20.90;99.90
41678;DHT22;27364;49.026;8.712;2023-06-22T00:35:48;20.90;99.90
41678;DHT22;27364;49.026;8.712;2023-06-22T00:38:18;20.80;99.90
41678;DHT22;27364;49.026;8.712;2023-06-22T00:40:43;20.80;99.90
41678;DHT22;27364;49.026;8.712;2023-06-22T00:43:09;20.70;99.90
41678;DHT22;27364;49.026;8.712;2023-06-22T00:45:34;20.60;99.90
41678;DHT22;27364;49.026;8.712;2023-06-22T00:48:00;20.60;99.90
41678;DHT22;27364;49.026;8.712;2023-06-22T00:50:28;20.60;99.90
41678;DHT22;27364;49.026;8.712;2023-06-22T00:53:00;20.70;99.90
41678;DHT22;27364;49.026;8.712;2023-06-22T00:55:26;20.70;99.90
41678;DHT22;27364;49.026;8.712;2023-06-22T00:57:52;20.70;99.90
41678;DHT22;27364;49.026;8.712;2023-06-22T01:00:23;20.60;99.90
41678;DHT22;27364;49.026;8.712;2023-06-22T01:02:51;20.50;99.90
41678;DHT22;27364;49.026;8.712;2023-06-22T01:05:21;20.40;99.90
41678;DHT22;27364;49.026;8.712;2023-06-22T01:08:12;20.40;99.90
41678;DHT22;27364;49.026;8.712;2023-06-22T01:13:45;20.30;99.90
41678;DHT22;27364;49.026;8.712;2023-06-22T01:16:31;20.20;99.90
41678;DHT22;27364;49.026;8.712;2023-06-22T01:19:00;20.10;99.90
41678;DHT22;27364;49.026;8.712;2023-06-22T01:21:28;20.00;99.90
41678;DHT22;27364;49.026;8.712;2023-06-22T01:24:10;19.90;99.90
41678;DHT22;27364;49.026;8.712;2023-06-22T01:26:48;19.90;99.90
41678;DHT22;27364;49.026;8.712;2023-06-22T01:29:20;19.80;99.90
41678;DHT22;27364;49.026;8.712;2023-06-22T01:31:48;19.70;99.90
41678;DHT22;27364;49.026;8.712;2023-06-22T01:34:14;19.70;99.90
41678;DHT22;27364;49.026;8.712;2023-06-22T01:36:41;19.70;99.90
41678;DHT22;27364;49.026;8.712;2023-06-22T01:39:07;19.70;99.90
41678;DHT22;27364;49.026;8.712;2023-06-22T01:41:37;19.70;99.90
41678;DHT22;27364;49.026;8.712;2023-06-22T01:44:05;19.70;99.90
41678;DHT22;27364;49.026;8.712;2023-06-22T01:46:32;19.60;99.90
41678;DHT22;27364;49.026;8.712;2023-06-22T01:48:58;19.70;99.90
41678;DHT22;27364;49.026;8.712;2023-06-22T01:51:24;19.60;99.90
41678;DHT22;27364;49.026;8.712;2023-06-22T01:53:49;19.60;99.90
41678;DHT22;27364;49.026;8.712;2023-06-22T01:56:17;19.50;99.90
41678;DHT22;27364;49.026;8.712;2023-06-22T01:59:05;19.40;99.90
41678;DHT22;27364;49.026;8.712;2023-06-22T02:01:43;19.40;99.90
41678;DHT22;27364;49.026;8.712;2023-06-22T02:04:17;19.40;99.90
41678;DHT22;27364;49.026;8.712;2023-06-22T02:06:45;19.40;99.90
41678;DHT22;27364;49.026;8.712;2023-06-22T02:09:15;19.40;99.90
41678;DHT22;27364;49.026;8.712;2023-06-22T02:11:44;19.40;99.90
41678;DHT22;27364;49.026;8.712;2023-06-22T02:14:12;19.30;99.90
41678;DHT22;27364;49.026;8.712;2023-06-22T02:16:38;19.30;99.90
41678;DHT22;27364;49.026;8.712;2023-06-22T02:19:04;19.30;99.90
41678;DHT22;27364;49.026;8.712;2023-06-22T02:21:31;19.20;99.90
41678;DHT22;27364;49.026;8.712;2023-06-22T02:23:57;19.20;99.90
41678;DHT22;27364;49.026;8.712;2023-06-22T02:26:25;19.20;99.90
41678;DHT22;27364;49.026;8.712;2023-06-22T02:28:51;19.10;99.90
41678;DHT22;27364;49.026;8.712;2023-06-22T02:31:16;19.10;99.90
41678;DHT22;27364;49.026;8.712;2023-06-22T02:33:42;19.10;99.90
41678;DHT22;27364;49.026;8.712;2023-06-22T02:36:09;19.10;99.90
41678;DHT22;27364;49.026;8.712;2023-06-22T02:38:35;19.10;99.90
41678;DHT22;27364;49.026;8.712;2023-06-22T02:41:02;19.10;99.90
41678;DHT22;27364;49.026;8.712;2023-06-22T02:43:27;19.10;99.90
41678;DHT22;27364;49.026;8.712;2023-06-22T02:45:53;19.10;99.90
41678;DHT22;27364;49.026;8.712;2023-06-22T02:48:19;19.10;99.90
41678;DHT22;27364;49.026;8.712;2023-06-22T02:50:44;19.10;99.90
41678;DHT22;27364;49.026;8.712;2023-06-22T02:53:10;19.10;99.90
41678;DHT22;27364;49.026;8.712;2023-06-22T02:55:35;19.10;99.90
41678;DHT22;27364;49.026;8.712;2023-06-22T02:58:01;19.10;99.90
41678;DHT22;27364;49.026;8.712;2023-06-22T03:00:30;19.00;99.90
41678;DHT22;27364;49.026;8.712;2023-06-22T03:02:56;19.00;99.90
41678;DHT22;27364;49.026;8.712;2023-06-22T03:05:22;19.00;99.90
41678;DHT22;27364;49.026;8.712;2023-06-22T03:07:48;19.00;99.90
41678;DHT22;27364;49.026;8.712;2023-06-22T03:10:15;19.00;99.90
41678;DHT22;27364;49.026;8.712;2023-06-22T03:12:41;19.00;99.90
41678;DHT22;27364;49.026;8.712;2023-06-22T03:15:11;18.90;99.90
41678;DHT22;27364;49.026;8.712;2023-06-22T03:17:38;18.90;99.90
41678;DHT22;27364;49.026;8.712;2023-06-22T03:20:08;18.90;99.90
41678;DHT22;27364;49.026;8.712;2023-06-22T03:22:41;18.90;99.90
41678;DHT22;27364;49.026;8.712;2023-06-22T03:25:08;18.80;99.90
41678;DHT22;27364;49.026;8.712;2023-06-22T03:27:39;18.80;99.90
41678;DHT22;27364;49.026;8.712;2023-06-22T03:30:06;18.80;99.90
41678;DHT22;27364;49.026;8.712;2023-06-22T03:32:32;18.80;99.90
41678;DHT22;27364;49.026;8.712;2023-06-22T03:34:58;18.70;99.90
41678;DHT22;27364;49.026;8.712;2023-06-22T03:37:25;18.70;99.90
41678;DHT22;27364;49.026;8.712;2023-06-22T03:39:51;18.70;99.90
41678;DHT22;27364;49.026;8.712;2023-06-22T03:42:16;18.80;99.90
41678;DHT22;27364;49.026;8.712;2023-06-22T03:44:42;18.70;99.90
41678;DHT22;27364;49.026;8.712;2023-06-22T03:47:07;18.80;99.90
41678;DHT22;27364;49.026;8.712;2023-06-22T03:49:34;18.80;99.90
41678;DHT22;27364;49.026;8.712;2023-06-22T03:52:00;18.80;99.90
41678;DHT22;27364;49.026;8.712;2023-06-22T03:54:27;18.80;99.90
41678;DHT22;27364;49.026;8.712;2023-06-22T03:56:53;18.90;99.90
41678;DHT22;27364;49.026;8.712;2023-06-22T03:59:18;18.90;99.90
41678;DHT22;27364;49.026;8.712;2023-06-22T04:01:44;18.90;99.90
41678;DHT22;27364;49.026;8.712;2023-06-22T04:04:10;18.90;99.90
41678;DHT22;27364;49.026;8.712;2023-06-22T04:06:35;18.90;99.90
41678;DHT22;27364;49.026;8.712;2023-06-22T04:09:01;18.90;99.90
41678;DHT22;27364;49.026;8.712;2023-06-22T04:11:27;18.90;99.90
41678;DHT22;27364;49.026;8.712;2023-06-22T04:13:52;18.90;99.90
41678;DHT22;27364;49.026;8.712;2023-06-22T04:16:18;18.90;99.90
41678;DHT22;27364;49.026;8.712;2023-06-22T04:18:44;18.90;99.90
41678;DHT22;27364;49.026;8.712;2023-06-22T04:21:10;18.90;99.90
41678;DHT22;27364;49.026;8.712;2023-06-22T04:23:35;19.00;99.90
41678;DHT22;27364;49.026;8.712;2023-06-22T04:26:01;19.00;99.90
41678;DHT22;27364;49.026;8.712;2023-06-22T04:28:26;19.10;99.90
41678;DHT22;27364;49.026;8.712;2023-06-22T04:30:52;19.10;99.90
41678;DHT22;27364;49.026;8.712;2023-06-22T04:33:17;19.10;99.90
41678;DHT22;27364;49.026;8.712;2023-06-22T04:35:46;19.10;99.90
41678;DHT22;27364;49.026;8.712;2023-06-22T04:38:12;19.10;99.90
41678;DHT22;27364;49.026;8.712;2023-06-22T04:40:39;19.20;99.90
41678;DHT22;27364;49.026;8.712;2023-06-22T04:43:04;19.20;99.90
41678;DHT22;27364;49.026;8.712;2023-06-22T04:45:32;19.20;99.90
41678;DHT22;27364;49.026;8.712;2023-06-22T04:47:58;19.30;99.90
41678;DHT22;27364;49.026;8.712;2023-06-22T04:50:24;19.30;99.90
41678;DHT22;27364;49.026;8.712;2023-06-22T04:52:50;19.30;99.90
41678;DHT22;27364;49.026;8.712;2023-06-22T04:55:17;19.30;99.90
41678;DHT22;27364;49.026;8.712;2023-06-22T04:57:44;19.40;99.90
41678;DHT22;27364;49.026;8.712;2023-06-22T05:00:18;19.40;99.90
41678;DHT22;27364;49.026;8.712;2023-06-22T05:02:45;19.40;99.90
41678;DHT22;27364;49.026;8.712;2023-06-22T05:05:11;19.50;99.90
41678;DHT22;27364;49.026;8.712;2023-06-22T05:07:43;19.50;99.90
41678;DHT22;27364;49.026;8.712;2023-06-22T05:10:10;19.50;99.90
41678;DHT22;27364;49.026;8.712;2023-06-22T05:12:37;19.50;99.90
41678;DHT22;27364;49.026;8.712;2023-06-22T05:15:02;19.60;99.90
41678;DHT22;27364;49.026;8.712;2023-06-22T05:17:28;19.60;99.90
41678;DHT22;27364;49.026;8.712;2023-06-22T05:19:53;19.60;99.90
41678;DHT22;27364;49.026;8.712;2023-06-22T05:22:20;19.70;99.90
41678;DHT22;27364;49.026;8.712;2023-06-22T05:24:46;19.70;99.90
41678;DHT22;27364;49.026;8.712;2023-06-22T05:27:12;19.70;99.90
41678;DHT22;27364;49.026;8.712;2023-06-22T05:29:38;19.70;99.90
41678;DHT22;27364;49.026;8.712;2023-06-22T05:32:04;19.80;99.90
41678;DHT22;27364;49.026;8.712;2023-06-22T05:34:29;19.80;99.90
41678;DHT22;27364;49.026;8.712;2023-06-22T05:36:55;19.80;99.90
41678;DHT22;27364;49.026;8.712;2023-06-22T05:39:21;19.80;99.90
41678;DHT22;27364;49.026;8.712;2023-06-22T05:41:47;19.90;99.90
41678;DHT22;27364;49.026;8.712;2023-06-22T05:44:12;20.00;99.90
41678;DHT22;27364;49.026;8.712;2023-06-22T05:46:42;20.00;99.90
41678;DHT22;27364;49.026;8.712;2023-06-22T05:49:12;20.00;99.90
41678;DHT22;27364;49.026;8.712;2023-06-22T05:51:38;20.10;99.90
41678;DHT22;27364;49.026;8.712;2023-06-22T05:54:04;20.10;99.90
41678;DHT22;27364;49.026;8.712;2023-06-22T05:56:29;20.20;99.90
41678;DHT22;27364;49.026;8.712;2023-06-22T05:58:55;20.30;99.90
41678;DHT22;27364;49.026;8.712;2023-06-22T06:01:20;20.30;99.90
41678;DHT22;27364;49.026;8.712;2023-06-22T06:03:46;20.40;99.90
41678;DHT22;27364;49.026;8.712;2023-06-22T06:06:12;20.50;99.90
41678;DHT22;27364;49.026;8.712;2023-06-22T06:08:38;20.50;99.90
41678;DHT22;27364;49.026;8.712;2023-06-22T06:11:04;20.60;99.90
41678;DHT22;27364;49.026;8.712;2023-06-22T06:13:30;20.60;99.90
41678;DHT22;27364;49.026;8.712;2023-06-22T06:15:56;20.70;99.90
41678;DHT22;27364;49.026;8.712;2023-06-22T06:18:22;20.80;99.90
41678;DHT22;27364;49.026;8.712;2023-06-22T06:20:48;20.90;99.90
41678;DHT22;27364;49.026;8.712;2023-06-22T06:23:14;20.90;99.90
41678;DHT22;27364;49.026;8.712;2023-06-22T06:25:40;20.90;99.90
41678;DHT22;27364;49.026;8.712;2023-06-22T06:28:05;21.00;99.90
41678;DHT22;27364;49.026;8.712;2023-06-22T06:30:31;21.10;99.90
41678;DHT22;27364;49.026;8.712;2023-06-22T06:32:56;21.20;99.90
41678;DHT22;27364;49.026;8.712;2023-06-22T06:35:22;21.30;99.90
41678;DHT22;27364;49.026;8.712;2023-06-22T06:37:49;21.30;99.90
41678;DHT22;27364;49.026;8.712;2023-06-22T06:40:17;21.40;99.90
41678;DHT22;27364;49.026;8.712;2023-06-22T06:42:44;21.40;99.90
41678;DHT22;27364;49.026;8.712;2023-06-22T06:45:21;21.50;99.90
41678;DHT22;27364;49.026;8.712;2023-06-22T06:47:48;21.50;99.90
41678;DHT22;27364;49.026;8.712;2023-06-22T06:50:14;21.50;99.90
41678;DHT22;27364;49.026;8.712;2023-06-22T06:52:39;21.60;99.90
41678;DHT22;27364;49.026;8.712;2023-06-22T06:55:06;21.70;99.90
41678;DHT22;27364;49.026;8.712;2023-06-22T06:57:34;21.70;99.90
41678;DHT22;27364;49.026;8.712;2023-06-22T07:00:00;21.80;99.90
41678;DHT22;27364;49.026;8.712;2023-06-22T07:02:26;21.80;99.90
41678;DHT22;27364;49.026;8.712;2023-06-22T07:04:54;21.80;99.90
41678;DHT22;27364;49.026;8.712;2023-06-22T07:07:24;21.90;99.90
41678;DHT22;27364;49.026;8.712;2023-06-22T07:09:51;22.00;99.90
41678;DHT22;27364;49.026;8.712;2023-06-22T07:12:16;22.10;99.90
41678;DHT22;27364;49.026;8.712;2023-06-22T07:14:42;22.10;99.90
41678;DHT22;27364;49.026;8.712;2023-06-22T07:17:07;22.10;99.90
41678;DHT22;27364;49.026;8.712;2023-06-22T07:19:33;22.20;99.90
41678;DHT22;27364;49.026;8.712;2023-06-22T07:21:59;22.30;99.90
41678;DHT22;27364;49.026;8.712;2023-06-22T07:24:24;22.40;99.90
41678;DHT22;27364;49.026;8.712;2023-06-22T07:26:50;22.50;99.90
41678;DHT22;27364;49.026;8.712;2023-06-22T07:29:22;22.50;99.90
41678;DHT22;27364;49.026;8.712;2023-06-22T07:31:49;22.60;99.90
41678;DHT22;27364;49.026;8.712;2023-06-22T07:34:17;22.60;99.90
41678;DHT22;27364;49.026;8.712;2023-06-22T07:36:44;22.70;99.90
41678;DHT22;27364;49.026;8.712;2023-06-22T07:39:10;22.80;99.90
41678;DHT22;27364;49.026;8.712;2023-06-22T07:41:35;22.90;99.90
41678;DHT22;27364;49.026;8.712;2023-06-22T07:44:02;23.00;99.90
41678;DHT22;27364;49.026;8.712;2023-06-22T07:46:28;23.00;99.90
41678;DHT22;27364;49.026;8.712;2023-06-22T07:48:56;23.10;99.90
41678;DHT22;27364;49.026;8.712;2023-06-22T07:51:21;23.10;99.90
41678;DHT22;27364;49.026;8.712;2023-06-22T07:53:47;23.20;99.90
41678;DHT22;27364;49.026;8.712;2023-06-22T07:56:13;23.20;99.90
41678;DHT22;27364;49.026;8.712;2023-06-22T07:58:38;23.40;99.90
41678;DHT22;27364;49.026;8.712;2023-06-22T08:01:04;23.50;99.90
41678;DHT22;27364;49.026;8.712;2023-06-22T08:03:31;23.60;99.90
41678;DHT22;27364;49.026;8.712;2023-06-22T08:05:57;23.70;99.90
41678;DHT22;27364;49.026;8.712;2023-06-22T08:08:24;23.80;99.90
41678;DHT22;27364;49.026;8.712;2023-06-22T08:10:49;23.90;99.90
41678;DHT22;27364;49.026;8.712;2023-06-22T08:13:15;24.10;99.90
41678;DHT22;27364;49.026;8.712;2023-06-22T08:15:40;24.10;99.90
41678;DHT22;27364;49.026;8.712;2023-06-22T08:18:06;24.30;99.90
41678;DHT22;27364;49.026;8.712;2023-06-22T08:20:32;24.30;99.90
41678;DHT22;27364;49.026;8.712;2023-06-22T08:22:59;24.40;99.90
41678;DHT22;27364;49.026;8.712;2023-06-22T08:25:30;24.40;99.90
41678;DHT22;27364;49.026;8.712;2023-06-22T08:27:56;24.40;99.90
41678;DHT22;27364;49.026;8.712;2023-06-22T08:30:21;24.40;99.90
41678;DHT22;27364;49.026;8.712;2023-06-22T08:32:47;24.60;99.90
41678;DHT22;27364;49.026;8.712;2023-06-22T08:35:14;24.70;99.90
41678;DHT22;27364;49.026;8.712;2023-06-22T08:37:39;24.90;99.90
41678;DHT22;27364;49.026;8.712;2023-06-22T08:40:07;25.10;99.90
41678;DHT22;27364;49.026;8.712;2023-06-22T08:42:34;25.00;99.90
41678;DHT22;27364;49.026;8.712;2023-06-22T08:44:59;24.90;99.90
41678;DHT22;27364;49.026;8.712;2023-06-22T08:47:27;24.90;99.90
41678;DHT22;27364;49.026;8.712;2023-06-22T08:49:53;24.70;99.90
41678;DHT22;27364;49.026;8.712;2023-06-22T08:52:19;24.60;99.90
41678;DHT22;27364;49.026;8.712;2023-06-22T08:54:45;24.50;99.90
41678;DHT22;27364;49.026;8.712;2023-06-22T08:57:11;24.40;99.90
41678;DHT22;27364;49.026;8.712;2023-06-22T08:59:36;24.40;99.90
41678;DHT22;27364;49.026;8.712;2023-06-22T09:02:02;24.30;99.90
41678;DHT22;27364;49.026;8.712;2023-06-22T09:04:27;24.30;99.90
41678;DHT22;27364;49.026;8.712;2023-06-22T09:06:53;24.40;99.90
41678;DHT22;27364;49.026;8.712;2023-06-22T09:09:18;24.50;99.90
41678;DHT22;27364;49.026;8.712;2023-06-22T09:11:44;24.70;99.90
41678;DHT22;27364;49.026;8.712;2023-06-22T09:14:10;24.90;99.90
41678;DHT22;27364;49.026;8.712;2023-06-22T09:16:36;25.10;99.90
41678;DHT22;27364;49.026;8.712;2023-06-22T09:19:01;25.20;99.90
41678;DHT22;27364;49.026;8.712;2023-06-22T09:21:27;25.40;99.90
41678;DHT22;27364;49.026;8.712;2023-06-22T09:23:53;25.50;99.90
41678;DHT22;27364;49.026;8.712;2023-06-22T09:26:19;25.60;99.90
41678;DHT22;27364;49.026;8.712;2023-06-22T09:28:44;25.80;99.90
41678;DHT22;27364;49.026;8.712;2023-06-22T09:31:10;25.90;99.90
41678;DHT22;27364;49.026;8.712;2023-06-22T09:33:37;26.00;99.90
41678;DHT22;27364;49.026;8.712;2023-06-22T09:36:06;26.00;99.90
41678;DHT22;27364;49.026;8.712;2023-06-22T09:38:36;26.00;99.90
41678;DHT22;27364;49.026;8.712;2023-06-22T09:41:01;26.10;99.90
41678;DHT22;27364;49.026;8.712;2023-06-22T09:43:27;26.20;99.90
41678;DHT22;27364;49.026;8.712;2023-06-22T09:45:53;26.30;99.90
41678;DHT22;27364;49.026;8.712;2023-06-22T09:48:19;26.40;99.90
41678;DHT22;27364;49.026;8.712;2023-06-22T09:50:45;26.50;99.90
41678;DHT22;27364;49.026;8.712;2023-06-22T09:53:11;26.70;99.90
41678;DHT22;27364;49.026;8.712;2023-06-22T09:55:37;26.70;99.90
41678;DHT22;27364;49.026;8.712;2023-06-22T09:58:02;26.60;99.90
41678;DHT22;27364;49.026;8.712;2023-06-22T10:00:28;26.60;99.90
41678;DHT22;27364;49.026;8.712;2023-06-22T10:02:53;26.50;99.90
41678;DHT22;27364;49.026;8.712;2023-06-22T10:05:21;26.50;99.90
41678;DHT22;27364;49.026;8.712;2023-06-22T10:07:47;26.60;99.90
41678;DHT22;27364;49.026;8.712;2023-06-22T10:10:13;26.80;99.90
41678;DHT22;27364;49.026;8.712;2023-06-22T10:12:43;26.90;99.90
41678;DHT22;27364;49.026;8.712;2023-06-22T10:15:10;26.90;99.90
41678;DHT22;27364;49.026;8.712;2023-06-22T10:17:35;26.90;99.90
41678;DHT22;27364;49.026;8.712;2023-06-22T10:20:01;26.80;99.90
41678;DHT22;27364;49.026;8.712;2023-06-22T10:22:37;26.80;99.90
41678;DHT22;27364;49.026;8.712;2023-06-22T10:25:03;26.70;99.90
41678;DHT22;27364;49.026;8.712;2023-06-22T10:27:28;26.60;99.90
41678;DHT22;27364;49.026;8.712;2023-06-22T10:29:54;26.60;99.90
41678;DHT22;27364;49.026;8.712;2023-06-22T10:32:20;26.50;99.90
41678;DHT22;27364;49.026;8.712;2023-06-22T10:34:45;26.50;99.90
41678;DHT22;27364;49.026;8.712;2023-06-22T10:37:11;26.50;99.90
41678;DHT22;27364;49.026;8.712;2023-06-22T10:39:36;26.40;99.90
41678;DHT22;27364;49.026;8.712;2023-06-22T10:42:02;26.40;99.90
41678;DHT22;27364;49.026;8.712;2023-06-22T10:44:27;26.50;99.90
41678;DHT22;27364;49.026;8.712;2023-06-22T10:46:53;26.50;99.90
41678;DHT22;27364;49.026;8.712;2023-06-22T10:49:18;26.60;99.90
41678;DHT22;27364;49.026;8.712;2023-06-22T10:51:44;26.50;99.90
41678;DHT22;27364;49.026;8.712;2023-06-22T10:54:09;26.60;99.90
41678;DHT22;27364;49.026;8.712;2023-06-22T10:56:35;26.60;99.90
41678;DHT22;27364;49.026;8.712;2023-06-22T10:59:00;26.50;99.90
41678;DHT22;27364;49.026;8.712;2023-06-22T11:01:27;26.50;99.90
41678;DHT22;27364;49.026;8.712;2023-06-22T11:03:53;26.40;99.90
41678;DHT22;27364;49.026;8.712;2023-06-22T11:06:18;26.50;99.90
41678;DHT22;27364;49.026;8.712;2023-06-22T11:08:44;26.40;99.90
41678;DHT22;27364;49.026;8.712;2023-06-22T11:11:10;26.60;99.90
41678;DHT22;27364;49.026;8.712;2023-06-22T11:13:36;26.80;99.90
41678;DHT22;27364;49.026;8.712;2023-06-22T11:16:01;26.90;99.90
41678;DHT22;27364;49.026;8.712;2023-06-22T11:18:27;26.80;99.90
41678;DHT22;27364;49.026;8.712;2023-06-22T11:20:52;26.80;99.90
41678;DHT22;27364;49.026;8.712;2023-06-22T11:23:18;26.70;99.90
41678;DHT22;27364;49.026;8.712;2023-06-22T11:25:44;26.70;99.90
41678;DHT22;27364;49.026;8.712;2023-06-22T11:28:10;26.70;99.90
41678;DHT22;27364;49.026;8.712;2023-06-22T11:30:35;26.80;99.90
41678;DHT22;27364;49.026;8.712;2023-06-22T11:33:01;26.80;99.90
41678;DHT22;27364;49.026;8.712;2023-06-22T11:35:26;26.90;99.90
41678;DHT22;27364;49.026;8.712;2023-06-22T11:37:52;27.00;99.90
41678;DHT22;27364;49.026;8.712;2023-06-22T11:40:17;27.10;99.90
41678;DHT22;27364;49.026;8.712;2023-06-22T11:42:43;27.20;99.90
41678;DHT22;27364;49.026;8.712;2023-06-22T11:45:09;27.10;99.90
41678;DHT22;27364;49.026;8.712;2023-06-22T11:47:35;27.10;99.90
41678;DHT22;27364;49.026;8.712;2023-06-22T11:50:02;27.00;99.90
41678;DHT22;27364;49.026;8.712;2023-06-22T11:52:27;26.90;99.90
41678;DHT22;27364;49.026;8.712;2023-06-22T11:54:53;26.90;99.90
41678;DHT22;27364;49.026;8.712;2023-06-22T11:57:18;26.80;99.90
41678;DHT22;27364;49.026;8.712;2023-06-22T11:59:44;26.70;99.90
41678;DHT22;27364;49.026;8.712;2023-06-22T12:02:09;26.60;99.90
41678;DHT22;27364;49.026;8.712;2023-06-22T12:04:35;26.50;99.90
41678;DHT22;27364;49.026;8.712;2023-06-22T12:07:00;26.50;99.90
41678;DHT22;27364;49.026;8.712;2023-06-22T12:09:26;26.50;99.90
41678;DHT22;27364;49.026;8.712;2023-06-22T12:11:52;26.40;99.90
41678;DHT22;27364;49.026;8.712;2023-06-22T12:14:17;26.50;99.90
41678;DHT22;27364;49.026;8.712;2023-06-22T12:16:46;26.40;99.90
41678;DHT22;27364;49.026;8.712;2023-06-22T12:19:11;26.40;99.90
41678;DHT22;27364;49.026;8.712;2023-06-22T12:21:37;26.40;99.90
41678;DHT22;27364;49.026;8.712;2023-06-22T12:24:03;26.50;99.90
41678;DHT22;27364;49.026;8.712;2023-06-22T12:26:29;26.50;99.90
41678;DHT22;27364;49.026;8.712;2023-06-22T12:28:54;26.70;99.90
41678;DHT22;27364;49.026;8.712;2023-06-22T12:31:20;26.60;99.90
41678;DHT22;27364;49.026;8.712;2023-06-22T12:33:45;26.60;99.90
41678;DHT22;27364;49.026;8.712;2023-06-22T12:36:11;26.80;99.90
41678;DHT22;27364;49.026;8.712;2023-06-22T12:38:36;26.80;99.90
41678;DHT22;27364;49.026;8.712;2023-06-22T12:41:02;26.90;99.90
41678;DHT22;27364;49.026;8.712;2023-06-22T12:43:27;27.10;99.90
41678;DHT22;27364;49.026;8.712;2023-06-22T12:45:53;27.40;99.90
41678;DHT22;27364;49.026;8.712;2023-06-22T12:48:19;27.60;99.90
41678;DHT22;27364;49.026;8.712;2023-06-22T12:50:44;27.70;99.90
41678;DHT22;27364;49.026;8.712;2023-06-22T12:53:10;27.70;99.90
41678;DHT22;27364;49.026;8.712;2023-06-22T12:55:35;27.60;99.90
41678;DHT22;27364;49.026;8.712;2023-06-22T12:58:00;27.60;99.90
41678;DHT22;27364;49.026;8.712;2023-06-22T13:00:26;27.60;99.90
41678;DHT22;27364;49.026;8.712;2023-06-22T13:02:52;27.60;99.90
41678;DHT22;27364;49.026;8.712;2023-06-22T13:05:19;27.60;99.90
41678;DHT22;27364;49.026;8.712;2023-06-22T13:07:44;27.60;99.90
41678;DHT22;27364;49.026;8.712;2023-06-22T13:10:11;27.60;99.90
41678;DHT22;27364;49.026;8.712;2023-06-22T13:12:36;27.60;99.90
41678;DHT22;27364;49.026;8.712;2023-06-22T13:15:02;27.90;99.90
41678;DHT22;27364;49.026;8.712;2023-06-22T13:17:28;28.10;99.90
41678;DHT22;27364;49.026;8.712;2023-06-22T13:19:54;28.10;99.90
41678;DHT22;27364;49.026;8.712;2023-06-22T13:22:30;28.00;99.90
41678;DHT22;27364;49.026;8.712;2023-06-22T13:24:56;28.10;99.90
41678;DHT22;27364;49.026;8.712;2023-06-22T13:27:22;28.20;99.90
41678;DHT22;27364;49.026;8.712;2023-06-22T13:29:48;28.20;99.90
41678;DHT22;27364;49.026;8.712;2023-06-22T13:32:13;28.20;99.90
41678;DHT22;27364;49.026;8.712;2023-06-22T13:34:39;28.20;99.90
41678;DHT22;27364;49.026;8.712;2023-06-22T13:37:04;28.20;99.90
41678;DHT22;27364;49.026;8.712;2023-06-22T13:39:30;28.50;99.90
41678;DHT22;27364;49.026;8.712;2023-06-22T13:41:57;28.80;99.90
41678;DHT22;27364;49.026;8.712;2023-06-22T13:44:23;28.90;99.90
41678;DHT22;27364;49.026;8.712;2023-06-22T13:46:48;29.10;99.90
41678;DHT22;27364;49.026;8.712;2023-06-22T13:49:14;29.60;99.90
41678;DHT22;27364;49.026;8.712;2023-06-22T13:51:39;29.90;99.90
41678;DHT22;27364;49.026;8.712;2023-06-22T13:54:05;29.80;99.90
41678;DHT22;27364;49.026;8.712;2023-06-22T13:56:30;30.10;99.90
41678;DHT22;27364;49.026;8.712;2023-06-22T13:58:57;30.10;99.90
41678;DHT22;27364;49.026;8.712;2023-06-22T14:01:22;30.20;99.90
41678;DHT22;27364;49.026;8.712;2023-06-22T14:03:48;30.20;99.90
41678;DHT22;27364;49.026;8.712;2023-06-22T14:06:13;30.50;99.90
41678;DHT22;27364;49.026;8.712;2023-06-22T14:08:39;30.50;99.90
41678;DHT22;27364;49.026;8.712;2023-06-22T14:11:04;30.50;99.90
41678;DHT22;27364;49.026;8.712;2023-06-22T14:13:30;30.50;99.90
41678;DHT22;27364;49.026;8.712;2023-06-22T14:15:55;30.20;99.90
41678;DHT22;27364;49.026;8.712;2023-06-22T14:18:21;29.90;99.90
41678;DHT22;27364;49.026;8.712;2023-06-22T14:20:49;29.60;99.90
41678;DHT22;27364;49.026;8.712;2023-06-22T14:23:15;29.40;99.90
41678;DHT22;27364;49.026;8.712;2023-06-22T14:25:40;29.20;99.90
41678;DHT22;27364;49.026;8.712;2023-06-22T14:28:06;29.00;99.90
41678;DHT22;27364;49.026;8.712;2023-06-22T14:30:32;28.80;99.90
41678;DHT22;27364;49.026;8.712;2023-06-22T14:32:57;28.60;99.90
41678;DHT22;27364;49.026;8.712;2023-06-22T14:35:23;28.40;99.90
41678;DHT22;27364;49.026;8.712;2023-06-22T14:37:49;28.30;99.90
41678;DHT22;27364;49.026;8.712;2023-06-22T14:40:15;28.10;99.90
41678;DHT22;27364;49.026;8.712;2023-06-22T14:42:41;28.10;99.90
41678;DHT22;27364;49.026;8.712;2023-06-22T14:45:07;28.00;99.90
41678;DHT22;27364;49.026;8.712;2023-06-22T14:47:33;27.80;99.90
41678;DHT22;27364;49.026;8.712;2023-06-22T14:49:58;27.80;99.90
41678;DHT22;27364;49.026;8.712;2023-06-22T14:52:25;27.60;99.90
41678;DHT22;27364;49.026;8.712;2023-06-22T14:54:51;27.60;99.90
41678;DHT22;27364;49.026;8.712;2023-06-22T14:57:18;27.50;99.90
41678;DHT22;27364;49.026;8.712;2023-06-22T14:59:51;27.60;99.90
41678;DHT22;27364;49.026;8.712;2023-06-22T15:02:17;28.00;99.90
41678;DHT22;27364;49.026;8.712;2023-06-22T15:04:42;28.20;99.90
41678;DHT22;27364;49.026;8.712;2023-06-22T15:07:08;28.30;99.90
41678;DHT22;27364;49.026;8.712;2023-06-22T15:09:34;28.40;99.90
41678;DHT22;27364;49.026;8.712;2023-06-22T15:12:01;28.60;99.90
41678;DHT22;27364;49.026;8.712;2023-06-22T15:14:28;28.80;99.90
41678;DHT22;27364;49.026;8.712;2023-06-22T15:16:53;28.80;99.90
41678;DHT22;27364;49.026;8.712;2023-06-22T15:19:19;28.80;99.90
41678;DHT22;27364;49.026;8.712;2023-06-22T15:21:44;28.90;99.90
41678;DHT22;27364;49.026;8.712;2023-06-22T15:24:11;29.00;99.90
41678;DHT22;27364;49.026;8.712;2023-06-22T15:26:36;29.20;99.90
41678;DHT22;27364;49.026;8.712;2023-06-22T15:29:02;29.30;99.40